createdAt,value
2022-09-28T00:00:19.465Z,8.32
2022-09-28T00:02:46.302Z,10.20
2022-09-28T00:05:12.977Z,12.18
2022-09-28T00:07:39.778Z,10.90
2022-09-28T00:10:07.366Z,12.87
2022-09-28T00:12:34.718Z,10.93
2022-09-28T00:15:02.486Z,8.70
2022-09-28T00:17:29.304Z,10.83
2022-09-28T00:19:57.974Z,9.70
2022-09-28T00:22:24.683Z,9.50
2022-09-28T00:24:51.363Z,8.47
2022-09-28T00:27:18.061Z,8.67
2022-09-28T00:29:44.715Z,8.47
2022-09-28T00:32:13.680Z,9.27
2022-09-28T00:34:43.259Z,8.33
2022-09-28T00:37:10.310Z,8.50
2022-09-28T00:39:38.382Z,8.67
2022-09-28T00:42:19.465Z,8.53
2022-09-28T00:44:59.491Z,8.57
2022-09-28T00:47:37.312Z,8.27
2022-09-28T00:50:25.830Z,8.30
2022-09-28T00:53:17.726Z,8.40
2022-09-28T00:56:03.570Z,8.67
2022-09-28T00:58:33.507Z,8.87
2022-09-28T01:01:00.600Z,9.13
2022-09-28T01:03:28.862Z,8.50
2022-09-28T01:05:58.332Z,8.87
2022-09-28T01:08:29.832Z,9.07
2022-09-28T01:10:59.118Z,9.70
2022-09-28T01:13:26.682Z,9.03
2022-09-28T01:16:12.944Z,9.40
2022-09-28T01:19:04.302Z,10.27
2022-09-28T01:21:47.090Z,10.20
2022-09-28T01:24:23.833Z,10.73
2022-09-28T01:27:10.319Z,9.17
2022-09-28T01:29:49.206Z,10.80
2022-09-28T01:32:35.309Z,10.30
2022-09-28T01:35:15.066Z,11.43
2022-09-28T01:37:53.176Z,13.30
2022-09-28T01:40:22.555Z,12.33
2022-09-28T01:42:54.752Z,13.77
2022-09-28T01:45:33.643Z,12.00
2022-09-28T01:48:05.015Z,10.20
2022-09-28T01:50:38.235Z,10.27
2022-09-28T01:53:19.113Z,10.13
2022-09-28T01:55:50.844Z,9.33
2022-09-28T01:58:37.715Z,8.07
2022-09-28T02:01:13.060Z,9.07
2022-09-28T02:03:55.191Z,9.67
2022-09-28T02:06:38.863Z,9.40
2022-09-28T02:09:13.117Z,9.23
2022-09-28T02:11:47.101Z,8.97
2022-09-28T02:14:17.438Z,8.80
2022-09-28T02:17:09.414Z,8.13
2022-09-28T02:19:36.379Z,8.50
2022-09-28T02:22:08.907Z,7.83
2022-09-28T02:24:48.118Z,9.33
2022-09-28T02:27:26.406Z,8.67
2022-09-28T02:29:56.874Z,8.20
2022-09-28T02:32:25.835Z,9.33
2022-09-28T02:34:52.446Z,8.83
2022-09-28T02:37:19.003Z,9.27
2022-09-28T02:39:45.592Z,9.13
2022-09-28T02:42:29.248Z,8.73
2022-09-28T02:45:37.742Z,11.40
2022-09-28T02:48:27.190Z,10.27
2022-09-28T02:51:37.525Z,15.20
2022-09-28T02:54:35.414Z,11.53
2022-09-28T02:57:37.357Z,13.40
2022-09-28T03:00:17.401Z,10.97
2022-09-28T03:02:50.118Z,13.13
2022-09-28T03:05:30.350Z,11.90
2022-09-28T03:08:21.649Z,10.73
2022-09-28T03:11:02.242Z,11.70
2022-09-28T03:13:29.787Z,11.63
2022-09-28T03:16:27.420Z,11.87
2022-09-28T03:18:54.152Z,11.63
2022-09-28T03:21:20.680Z,11.27
2022-09-28T03:23:47.848Z,11.37
2022-09-28T03:26:16.708Z,12.23
2022-09-28T03:28:43.438Z,12.67
2022-09-28T03:31:10.067Z,12.30
2022-09-28T03:33:36.756Z,11.75
2022-09-28T03:36:03.409Z,12.17
2022-09-28T03:38:30.038Z,11.77
2022-09-28T03:41:00.037Z,12.00
2022-09-28T03:43:28.158Z,11.57
2022-09-28T03:45:56.600Z,13.43
2022-09-28T03:48:32.382Z,12.07
2022-09-28T03:51:01.194Z,12.40
2022-09-28T03:53:29.638Z,12.00
2022-09-28T03:56:01.626Z,12.50
2022-09-28T03:58:28.284Z,11.77
2022-09-28T04:00:54.846Z,12.80
2022-09-28T04:03:21.445Z,11.33
2022-09-28T04:05:55.054Z,12.20
2022-09-28T04:08:21.985Z,13.07
2022-09-28T04:10:48.551Z,12.07
2022-09-28T04:13:15.278Z,12.43
2022-09-28T04:15:43.027Z,12.27
2022-09-28T04:18:11.410Z,12.53
2022-09-28T04:20:41.003Z,10.85
2022-09-28T04:23:07.767Z,12.50
2022-09-28T04:25:34.395Z,10.77
2022-09-28T04:28:19.759Z,11.70
2022-09-28T04:30:47.710Z,12.83
2022-09-28T04:33:14.356Z,12.70
2022-09-28T04:35:41.027Z,12.63
2022-09-28T04:38:07.745Z,11.77
2022-09-28T04:40:34.464Z,11.40
2022-09-28T04:43:01.284Z,11.53
2022-09-28T04:45:28.548Z,12.57
2022-09-28T04:47:55.205Z,11.63
2022-09-28T04:50:21.804Z,12.33
2022-09-28T04:52:48.410Z,11.97
2022-09-28T04:55:15.149Z,11.43
2022-09-28T04:57:41.766Z,11.80
2022-09-28T05:00:09.601Z,11.97
2022-09-28T05:02:36.402Z,11.10
2022-09-28T05:05:03.176Z,11.67
2022-09-28T05:07:31.148Z,13.03
2022-09-28T05:09:57.750Z,14.20
2022-09-28T05:12:24.424Z,13.70
2022-09-28T05:14:50.984Z,15.83
2022-09-28T05:17:17.680Z,16.90
2022-09-28T05:19:44.263Z,19.10
2022-09-28T05:22:14.760Z,19.40
2022-09-28T05:24:41.774Z,17.63
2022-09-28T05:27:08.625Z,17.63
2022-09-28T05:29:35.310Z,17.90
2022-09-28T05:32:02.307Z,17.03
2022-09-28T05:34:29.191Z,16.87
2022-09-28T05:36:55.840Z,17.07
2022-09-28T05:39:22.543Z,16.60
2022-09-28T05:41:49.439Z,17.37
2022-09-28T05:44:16.494Z,18.10
2022-09-28T05:46:43.185Z,18.17
2022-09-28T05:49:10.179Z,17.20
2022-09-28T05:51:38.902Z,17.90
2022-09-28T05:54:06.336Z,19.88
2022-09-28T05:56:33.340Z,19.80
2022-09-28T05:58:59.982Z,24.05
2022-09-28T06:01:26.710Z,26.53
2022-09-28T06:03:53.350Z,25.80
2022-09-28T06:06:19.940Z,23.85
2022-09-28T06:08:48.332Z,25.38
2022-09-28T06:11:14.963Z,24.67
2022-09-28T06:13:41.518Z,25.50
2022-09-28T06:16:08.993Z,27.27
2022-09-28T06:18:36.171Z,28.58
2022-09-28T06:21:02.839Z,26.48
2022-09-28T06:23:29.429Z,24.13
2022-09-28T06:25:55.949Z,25.02
2022-09-28T06:28:22.600Z,25.75
2022-09-28T06:30:49.238Z,27.75
2022-09-28T06:33:16.261Z,27.40
2022-09-28T06:35:42.976Z,25.98
2022-09-28T06:38:36.467Z,26.17
2022-09-28T06:41:14.521Z,23.52
2022-09-28T06:43:46.969Z,19.70
2022-09-28T06:49:22.514Z,23.60
2022-09-28T06:51:52.248Z,19.55
2022-09-28T06:54:18.976Z,13.88
2022-09-28T06:56:45.726Z,22.70
2022-09-28T06:59:12.524Z,22.45
2022-09-28T07:01:39.125Z,22.67
2022-09-28T07:04:05.753Z,22.58
2022-09-28T07:06:32.310Z,22.48
2022-09-28T07:09:21.306Z,22.77
2022-09-28T07:11:49.405Z,23.50
2022-09-28T07:14:32.727Z,22.45
2022-09-28T07:17:13.009Z,23.08
2022-09-28T07:19:40.919Z,23.08
2022-09-28T07:22:07.632Z,21.80
2022-09-28T07:24:34.397Z,22.88
2022-09-28T07:27:04.382Z,20.58
2022-09-28T07:29:31.099Z,20.20
2022-09-28T07:31:57.759Z,19.05
2022-09-28T07:34:24.354Z,19.50
2022-09-28T07:36:58.732Z,16.05
2022-09-28T07:39:25.289Z,16.23
2022-09-28T07:41:54.418Z,16.65
2022-09-28T07:44:23.400Z,9.85
2022-09-28T07:46:50.536Z,11.18
2022-09-28T07:49:19.281Z,16.13
2022-09-28T07:51:45.953Z,16.27
2022-09-28T07:54:12.493Z,16.55
2022-09-28T07:56:39.108Z,15.70
2022-09-28T07:59:05.825Z,16.95
2022-09-28T08:01:32.502Z,16.15
2022-09-28T08:03:59.227Z,16.30
2022-09-28T08:06:26.201Z,14.10
2022-09-28T08:08:56.192Z,13.57
2022-09-28T08:11:22.755Z,17.63
2022-09-28T08:13:50.840Z,13.85
2022-09-28T08:16:17.518Z,14.48
2022-09-28T08:18:44.207Z,14.25
2022-09-28T08:21:29.790Z,12.48
2022-09-28T08:23:56.438Z,13.18
2022-09-28T08:26:22.967Z,11.55
2022-09-28T08:28:50.087Z,12.48
2022-09-28T08:31:16.940Z,11.05
2022-09-28T08:33:43.542Z,11.45
2022-09-28T08:36:10.592Z,10.55
2022-09-28T08:38:37.775Z,11.20
2022-09-28T08:41:42.102Z,9.27
2022-09-28T08:44:16.680Z,10.40
2022-09-28T08:46:49.460Z,11.20
2022-09-28T08:49:34.470Z,10.68
2022-09-28T08:52:05.700Z,10.07
2022-09-28T08:55:00.121Z,9.25
2022-09-28T08:57:33.679Z,9.55
2022-09-28T09:00:02.671Z,10.27
2022-09-28T09:02:36.022Z,10.63
2022-09-28T09:05:13.345Z,9.27
2022-09-28T09:07:56.741Z,8.80
2022-09-28T09:10:46.262Z,10.93
2022-09-28T09:13:54.012Z,11.13
2022-09-28T09:16:47.256Z,9.93
2022-09-28T09:19:20.294Z,10.60
2022-09-28T09:21:52.412Z,10.30
2022-09-28T09:24:26.964Z,10.40
2022-09-28T09:27:05.905Z,9.55
2022-09-28T09:30:06.212Z,11.10
2022-09-28T09:32:53.329Z,10.25
2022-09-28T09:35:37.489Z,9.57
2022-09-28T09:38:47.069Z,9.57
2022-09-28T09:41:36.241Z,8.88
2022-09-28T09:44:30.745Z,8.93
2022-09-28T09:47:29.690Z,8.68
2022-09-28T09:50:40.742Z,8.73
2022-09-28T09:53:27.017Z,8.68
2022-09-28T09:56:00.121Z,7.70
2022-09-28T09:58:46.252Z,8.90
2022-09-28T10:01:20.258Z,7.65
2022-09-28T10:03:48.726Z,7.80
2022-09-28T10:09:47.369Z,8.20
2022-09-28T10:12:21.346Z,7.65
2022-09-28T10:14:48.145Z,8.05
2022-09-28T10:17:51.912Z,7.90
2022-09-28T10:20:19.110Z,6.18
2022-09-28T10:22:46.219Z,7.00
2022-09-28T10:25:13.231Z,7.10
2022-09-28T10:27:47.394Z,6.88
2022-09-28T10:30:25.307Z,6.97
2022-09-28T10:32:58.937Z,6.57
2022-09-28T10:35:31.277Z,7.30
2022-09-28T10:38:03.232Z,6.55
2022-09-28T10:40:46.718Z,7.20
2022-09-28T10:43:23.237Z,6.72
2022-09-28T10:46:00.756Z,7.22
2022-09-28T10:48:29.036Z,7.07
2022-09-28T10:51:07.619Z,7.78
2022-09-28T10:53:37.085Z,8.15
2022-09-28T10:56:22.407Z,8.82
2022-09-28T10:58:49.180Z,9.95
2022-09-28T11:01:19.626Z,9.75
2022-09-28T11:03:56.259Z,11.23
2022-09-28T11:06:29.626Z,11.38
2022-09-28T11:09:00.365Z,12.00
2022-09-28T11:11:27.648Z,12.05
2022-09-28T11:13:57.628Z,11.73
2022-09-28T11:16:33.690Z,12.60
2022-09-28T11:19:06.849Z,12.63
2022-09-28T11:21:43.929Z,11.45
2022-09-28T11:24:23.217Z,11.75
2022-09-28T11:26:53.014Z,11.38
2022-09-28T11:29:41.963Z,16.38
2022-09-28T11:32:15.014Z,9.52
2022-09-28T11:34:59.024Z,31.73
2022-09-28T11:37:43.428Z,11.73
2022-09-28T11:40:16.208Z,14.60
2022-09-28T11:43:13.347Z,13.55
2022-09-28T11:45:48.416Z,13.38
2022-09-28T11:48:23.689Z,11.95
2022-09-28T11:50:56.145Z,12.27
2022-09-28T11:53:30.195Z,12.85
2022-09-28T11:56:17.059Z,13.27
2022-09-28T11:58:53.318Z,11.43
2022-09-28T12:01:35.554Z,9.60
2022-09-28T12:04:09.228Z,8.80
2022-09-28T12:06:45.883Z,6.78
2022-09-28T12:09:37.980Z,7.22
2022-09-28T12:12:22.368Z,8.38
2022-09-28T12:14:54.163Z,5.55
2022-09-28T12:17:30.733Z,4.95
2022-09-28T12:20:21.547Z,4.32
2022-09-28T12:23:03.852Z,4.13
2022-09-28T12:25:39.397Z,4.10
2022-09-28T12:28:14.654Z,4.05
2022-09-28T12:30:43.760Z,5.43
2022-09-28T12:33:15.540Z,4.20
2022-09-28T12:35:45.165Z,4.50
2022-09-28T12:38:11.694Z,4.35
2022-09-28T12:40:52.697Z,9.27
2022-09-28T12:43:53.015Z,5.53
2022-09-28T12:46:42.263Z,5.15
2022-09-28T12:50:33.304Z,6.68
2022-09-28T12:52:28.900Z,7.68
2022-09-28T12:55:21.982Z,9.27
2022-09-28T12:58:17.665Z,5.10
2022-09-28T13:01:05.254Z,4.80
2022-09-28T13:04:00.041Z,4.75
2022-09-28T13:06:52.902Z,4.90
2022-09-28T13:09:27.648Z,4.35
2022-09-28T13:12:13.853Z,4.57
2022-09-28T13:15:04.570Z,6.47
2022-09-28T13:18:13.200Z,10.05
2022-09-28T13:20:54.738Z,6.47
2022-09-28T13:23:25.343Z,6.68
2022-09-28T13:26:07.022Z,7.30
2022-09-28T13:28:35.576Z,5.90
2022-09-28T13:31:04.332Z,6.60
2022-09-28T13:33:36.953Z,5.28
2022-09-28T13:36:23.865Z,5.85
2022-09-28T13:38:52.017Z,5.47
2022-09-28T13:41:28.892Z,4.78
2022-09-28T13:44:22.209Z,4.07
2022-09-28T13:47:19.992Z,5.13
2022-09-28T13:50:16.628Z,3.80
2022-09-28T13:53:03.853Z,4.15
2022-09-28T13:55:56.872Z,4.20
2022-09-28T13:58:31.184Z,6.20
2022-09-28T14:01:11.197Z,5.40
2022-09-28T14:03:54.915Z,4.55
2022-09-28T14:06:23.652Z,4.00
2022-09-28T14:09:13.441Z,4.38
2022-09-28T14:11:54.935Z,4.05
2022-09-28T14:14:29.484Z,4.00
2022-09-28T14:17:19.012Z,4.03
2022-09-28T14:19:52.527Z,5.20
2022-09-28T14:22:48.239Z,4.43
2022-09-28T14:25:44.305Z,3.90
2022-09-28T14:28:42.155Z,9.45
2022-09-28T14:31:17.153Z,3.45
2022-09-28T14:33:56.798Z,3.78
2022-09-28T14:36:46.830Z,3.28
2022-09-28T14:39:41.102Z,3.30
2022-09-28T14:42:15.175Z,7.82
2022-09-28T14:45:07.828Z,5.68
2022-09-28T14:47:41.415Z,3.50
2022-09-28T14:50:20.183Z,3.67
2022-09-28T14:53:12.107Z,3.65
2022-09-28T14:55:50.107Z,3.80
2022-09-28T14:58:23.431Z,5.00
2022-09-28T15:01:00.827Z,4.05
2022-09-28T15:03:30.922Z,3.28
2022-09-28T15:05:57.541Z,3.90
2022-09-28T15:08:36.481Z,4.20
2022-09-28T15:11:03.464Z,3.67
2022-09-28T15:13:30.083Z,3.50
2022-09-28T15:16:08.837Z,3.67
2022-09-28T15:18:56.492Z,3.53
2022-09-28T15:21:31.748Z,3.97
2022-09-28T15:23:58.430Z,3.65
2022-09-28T15:26:29.632Z,3.15
2022-09-28T15:28:56.647Z,3.10
2022-09-28T15:31:26.234Z,2.83
2022-09-28T15:34:12.055Z,2.97
2022-09-28T15:36:41.598Z,2.70
2022-09-28T15:39:34.882Z,2.85
2022-09-28T15:42:02.177Z,3.38
2022-09-28T15:44:32.822Z,3.30
2022-09-28T15:47:10.536Z,3.05
2022-09-28T15:49:42.004Z,1.40
2022-09-28T15:52:41.741Z,1.17
2022-09-28T15:55:32.324Z,1.75
2022-09-28T15:58:05.646Z,1.50
2022-09-28T16:00:32.991Z,2.65
2022-09-28T16:03:00.859Z,2.42
2022-09-28T16:05:59.616Z,4.10
2022-09-28T16:08:45.923Z,2.72
2022-09-28T16:11:27.661Z,4.85
2022-09-28T16:14:06.162Z,14.90
2022-09-28T16:16:46.473Z,10.18
2022-09-28T16:19:36.523Z,2.00
2022-09-28T16:22:07.456Z,1.60
2022-09-28T16:24:38.704Z,1.65
2022-09-28T16:27:26.535Z,2.20
2022-09-28T16:30:21.270Z,3.85
2022-09-28T16:32:56.385Z,2.50
2022-09-28T16:35:25.691Z,2.13
2022-09-28T16:38:16.465Z,7.05
2022-09-28T16:40:53.832Z,7.80
2022-09-28T16:43:30.987Z,5.20
2022-09-28T16:46:01.173Z,5.63
2022-09-28T16:48:30.139Z,5.40
2022-09-28T16:50:57.865Z,9.82
2022-09-28T16:53:44.027Z,7.40
2022-09-28T16:56:12.458Z,5.78
2022-09-28T16:58:39.142Z,4.72
2022-09-28T17:01:09.229Z,3.78
2022-09-28T17:03:35.981Z,3.10
2022-09-28T17:06:08.755Z,3.10
2022-09-28T17:08:36.044Z,3.10
2022-09-28T17:11:14.967Z,3.60
2022-09-28T17:13:45.734Z,4.25
2022-09-28T17:16:28.242Z,3.28
2022-09-28T17:19:05.490Z,3.22
2022-09-28T17:21:32.086Z,3.65
2022-09-28T17:23:58.702Z,3.83
2022-09-28T17:26:30.623Z,3.65
2022-09-28T17:29:01.801Z,3.65
2022-09-28T17:31:29.383Z,4.22
2022-09-28T17:33:56.184Z,4.93
2022-09-28T17:36:22.985Z,4.57
2022-09-28T17:38:51.639Z,5.10
2022-09-28T17:41:20.824Z,5.63
2022-09-28T17:43:48.917Z,5.93
2022-09-28T17:46:34.882Z,7.75
2022-09-28T17:49:04.265Z,6.57
2022-09-28T17:51:37.467Z,7.50
2022-09-28T17:54:06.551Z,7.70
2022-09-28T17:56:33.640Z,7.75
2022-09-28T17:59:03.229Z,8.27
2022-09-28T18:01:34.005Z,7.53
2022-09-28T18:04:05.640Z,8.18
2022-09-28T18:06:33.800Z,8.45
2022-09-28T18:09:03.020Z,9.30
2022-09-28T18:11:31.230Z,8.25
2022-09-28T18:13:57.949Z,9.40
2022-09-28T18:16:26.032Z,9.75
2022-09-28T18:18:52.705Z,9.05
2022-09-28T18:21:19.898Z,9.57
2022-09-28T18:23:46.547Z,9.23
2022-09-28T18:26:18.951Z,9.10
2022-09-28T18:28:46.666Z,8.52
2022-09-28T18:31:15.339Z,8.68
2022-09-28T18:33:42.192Z,8.60
2022-09-28T18:36:08.884Z,9.23
2022-09-28T18:38:36.161Z,9.48
2022-09-28T18:41:16.794Z,10.13
2022-09-28T18:43:51.340Z,11.02
2022-09-28T18:46:18.767Z,11.43
2022-09-28T18:48:47.654Z,10.50
2022-09-28T18:51:14.570Z,11.07
2022-09-28T18:53:41.234Z,12.48
2022-09-28T18:56:10.131Z,11.70
2022-09-28T18:58:38.563Z,12.60
2022-09-28T19:01:32.831Z,12.43
2022-09-28T19:04:01.211Z,12.38
2022-09-28T19:06:28.503Z,12.90
2022-09-28T19:08:55.857Z,13.20
2022-09-28T19:11:23.296Z,13.50
2022-09-28T19:13:49.982Z,13.90
2022-09-28T19:16:19.100Z,13.60
2022-09-28T19:18:46.165Z,16.65
2022-09-28T19:21:15.020Z,17.08
2022-09-28T19:23:48.079Z,22.25
2022-09-28T19:26:21.508Z,19.15
2022-09-28T19:28:48.628Z,17.63
2022-09-28T19:31:15.722Z,22.85
2022-09-28T19:33:46.151Z,28.67
2022-09-28T19:36:18.833Z,19.33
2022-09-28T19:38:46.310Z,16.83
2022-09-28T19:41:43.578Z,16.30
2022-09-28T19:44:21.244Z,19.10
2022-09-28T19:46:47.971Z,17.77
2022-09-28T19:49:20.006Z,19.83
2022-09-28T19:52:10.945Z,28.80
2022-09-28T19:54:36.768Z,17.88
2022-09-28T19:57:08.455Z,20.13
2022-09-28T19:59:37.072Z,18.25
2022-09-28T20:02:05.475Z,19.85
2022-09-28T20:04:32.138Z,17.40
2022-09-28T20:06:58.967Z,20.73
2022-09-28T20:09:27.909Z,18.00
2022-09-28T20:11:55.229Z,17.40
2022-09-28T20:14:25.840Z,16.77
2022-09-28T20:16:53.257Z,17.52
2022-09-28T20:19:21.675Z,15.77
2022-09-28T20:21:48.846Z,17.40
2022-09-28T20:24:18.806Z,15.82
2022-09-28T20:26:46.047Z,15.77
2022-09-28T20:29:13.332Z,18.92
2022-09-28T20:31:40.048Z,22.27
2022-09-28T20:34:07.022Z,22.02
2022-09-28T20:36:34.292Z,24.05
2022-09-28T20:39:02.125Z,17.42
2022-09-28T20:41:33.864Z,28.55
2022-09-28T20:44:05.045Z,21.10
2022-09-28T20:46:33.010Z,24.67
2022-09-28T20:48:59.951Z,19.40
2022-09-28T20:51:26.717Z,22.15
2022-09-28T20:53:55.128Z,18.17
2022-09-28T20:56:24.489Z,17.02
2022-09-28T20:58:54.232Z,16.88
2022-09-28T21:01:30.211Z,18.83
2022-09-28T21:03:59.362Z,17.35
2022-09-28T21:06:31.144Z,33.33
2022-09-28T21:08:58.273Z,18.92
2022-09-28T21:11:26.568Z,22.00
2022-09-28T21:14:00.501Z,19.85
2022-09-28T21:16:29.324Z,18.83
2022-09-28T21:18:56.042Z,20.38
2022-09-28T21:21:23.754Z,19.60
2022-09-28T21:23:57.537Z,21.38
2022-09-28T21:26:26.853Z,27.75
2022-09-28T21:28:59.090Z,21.25
2022-09-28T21:31:29.410Z,20.48
2022-09-28T21:33:57.369Z,22.13
2022-09-28T21:36:24.704Z,24.50
2022-09-28T21:38:51.392Z,24.38
2022-09-28T21:41:18.113Z,22.88
2022-09-28T21:43:45.670Z,21.25
2022-09-28T21:46:12.536Z,24.05
2022-09-28T21:48:39.529Z,33.20
2022-09-28T21:51:09.177Z,23.75
2022-09-28T21:53:37.393Z,30.88
2022-09-28T21:56:10.179Z,29.33
2022-09-28T21:58:37.460Z,21.98
2022-09-28T22:01:18.014Z,22.48
2022-09-28T22:03:47.935Z,22.88
2022-09-28T22:06:16.241Z,20.83
2022-09-28T22:08:43.064Z,19.83
2022-09-28T22:11:12.784Z,21.27
2022-09-28T22:13:53.004Z,22.25
2022-09-28T22:16:22.779Z,24.00
2022-09-28T22:18:50.143Z,20.48
2022-09-28T22:21:18.728Z,20.25
2022-09-28T22:23:45.920Z,20.33
2022-09-28T22:26:20.153Z,22.48
2022-09-28T22:28:51.580Z,19.40
2022-09-28T22:31:20.376Z,17.67
2022-09-28T22:33:47.738Z,17.92
2022-09-28T22:36:16.880Z,18.20
2022-09-28T22:38:44.565Z,18.20
2022-09-28T22:41:12.044Z,18.10
2022-09-28T22:43:38.816Z,19.25
2022-09-28T22:46:10.330Z,19.20
2022-09-28T22:48:37.783Z,20.00
2022-09-28T22:51:06.339Z,19.17
2022-09-28T22:53:34.306Z,18.98
2022-09-28T22:56:05.570Z,19.88
2022-09-28T22:58:37.664Z,19.50
2022-09-28T23:01:17.860Z,20.65
2022-09-28T23:03:45.110Z,19.90
2022-09-28T23:06:16.032Z,19.75
2022-09-28T23:08:44.633Z,20.35
2022-09-28T23:11:11.830Z,20.63
2022-09-28T23:13:38.527Z,22.20
2022-09-28T23:16:11.242Z,21.90
2022-09-28T23:18:40.985Z,21.08
2022-09-28T23:21:16.427Z,21.92
2022-09-28T23:23:44.139Z,21.13
2022-09-28T23:26:19.190Z,22.30
2022-09-28T23:28:46.377Z,21.42
2022-09-28T23:31:16.491Z,22.13
2022-09-28T23:33:43.451Z,21.65
2022-09-28T23:36:10.719Z,22.60
2022-09-28T23:38:37.859Z,23.33
2022-09-28T23:41:05.054Z,21.70
2022-09-28T23:43:31.758Z,23.02
2022-09-28T23:45:58.622Z,21.38
2022-09-28T23:48:25.466Z,21.30
2022-09-28T23:50:52.162Z,22.00
2022-09-28T23:53:18.844Z,22.83
2022-09-28T23:55:45.580Z,22.98
2022-09-28T23:58:12.568Z,23.38
